sensor_id;sensor_type;location;lat;lon;timestamp;P1;durP1;ratioP1;P2;durP2;ratioP2
57225;SDS011;43082;43.568;22.256;2024-03-02T00:00:08;32.80;;;19.75;;
57225;SDS011;43082;43.568;22.256;2024-03-02T00:02:44;35.30;;;21.58;;
57225;SDS011;43082;43.568;22.256;2024-03-02T00:05:10;34.85;;;21.95;;
57225;SDS011;43082;43.568;22.256;2024-03-02T00:07:41;30.30;;;22.42;;
57225;SDS011;43082;43.568;22.256;2024-03-02T00:10:08;26.10;;;18.48;;
57225;SDS011;43082;43.568;22.256;2024-03-02T00:12:37;26.67;;;19.38;;
57225;SDS011;43082;43.568;22.256;2024-03-02T00:15:06;25.20;;;18.30;;
57225;SDS011;43082;43.568;22.256;2024-03-02T00:17:39;25.50;;;20.08;;
57225;SDS011;43082;43.568;22.256;2024-03-02T00:20:04;28.10;;;21.67;;
57225;SDS011;43082;43.568;22.256;2024-03-02T00:22:35;23.38;;;17.95;;
57225;SDS011;43082;43.568;22.256;2024-03-02T00:25:02;24.58;;;19.25;;
57225;SDS011;43082;43.568;22.256;2024-03-02T00:27:28;24.20;;;17.17;;
57225;SDS011;43082;43.568;22.256;2024-03-02T00:29:54;28.95;;;20.10;;
57225;SDS011;43082;43.568;22.256;2024-03-02T00:32:21;39.58;;;26.63;;
57225;SDS011;43082;43.568;22.256;2024-03-02T00:34:47;39.17;;;26.20;;
57225;SDS011;43082;43.568;22.256;2024-03-02T00:37:12;34.30;;;22.88;;
57225;SDS011;43082;43.568;22.256;2024-03-02T00:39:39;24.92;;;17.23;;
57225;SDS011;43082;43.568;22.256;2024-03-02T00:42:05;24.83;;;16.70;;
57225;SDS011;43082;43.568;22.256;2024-03-02T00:44:30;24.52;;;17.10;;
57225;SDS011;43082;43.568;22.256;2024-03-02T00:47:00;22.55;;;14.93;;
57225;SDS011;43082;43.568;22.256;2024-03-02T00:49:26;20.58;;;13.90;;
57225;SDS011;43082;43.568;22.256;2024-03-02T00:51:53;20.52;;;14.27;;
57225;SDS011;43082;43.568;22.256;2024-03-02T00:54:23;20.17;;;13.93;;
57225;SDS011;43082;43.568;22.256;2024-03-02T00:56:50;19.30;;;13.45;;
57225;SDS011;43082;43.568;22.256;2024-03-02T00:59:16;29.58;;;19.25;;
57225;SDS011;43082;43.568;22.256;2024-03-02T01:01:42;24.52;;;16.58;;
57225;SDS011;43082;43.568;22.256;2024-03-02T01:04:08;17.75;;;14.02;;
57225;SDS011;43082;43.568;22.256;2024-03-02T01:06:34;17.73;;;13.93;;
57225;SDS011;43082;43.568;22.256;2024-03-02T01:09:00;19.98;;;16.10;;
57225;SDS011;43082;43.568;22.256;2024-03-02T01:11:26;20.50;;;16.02;;
57225;SDS011;43082;43.568;22.256;2024-03-02T01:13:51;20.80;;;15.80;;
57225;SDS011;43082;43.568;22.256;2024-03-02T01:16:17;19.55;;;14.27;;
57225;SDS011;43082;43.568;22.256;2024-03-02T01:18:43;17.67;;;12.27;;
57225;SDS011;43082;43.568;22.256;2024-03-02T01:21:08;18.38;;;13.15;;
57225;SDS011;43082;43.568;22.256;2024-03-02T01:23:34;17.35;;;13.63;;
57225;SDS011;43082;43.568;22.256;2024-03-02T01:25:59;15.15;;;11.82;;
57225;SDS011;43082;43.568;22.256;2024-03-02T01:28:25;14.63;;;10.55;;
57225;SDS011;43082;43.568;22.256;2024-03-02T01:30:50;15.02;;;10.90;;
57225;SDS011;43082;43.568;22.256;2024-03-02T01:33:19;12.48;;;9.55;;
57225;SDS011;43082;43.568;22.256;2024-03-02T01:35:45;13.15;;;10.05;;
57225;SDS011;43082;43.568;22.256;2024-03-02T01:38:10;13.80;;;10.27;;
57225;SDS011;43082;43.568;22.256;2024-03-02T01:40:36;14.40;;;10.23;;
57225;SDS011;43082;43.568;22.256;2024-03-02T01:43:03;13.90;;;9.93;;
57225;SDS011;43082;43.568;22.256;2024-03-02T01:45:29;11.52;;;8.63;;
57225;SDS011;43082;43.568;22.256;2024-03-02T01:47:55;11.80;;;8.13;;
57225;SDS011;43082;43.568;22.256;2024-03-02T01:50:27;11.50;;;8.52;;
57225;SDS011;43082;43.568;22.256;2024-03-02T01:52:53;11.57;;;8.50;;
57225;SDS011;43082;43.568;22.256;2024-03-02T01:55:20;10.45;;;7.43;;
57225;SDS011;43082;43.568;22.256;2024-03-02T01:57:45;11.40;;;7.97;;
57225;SDS011;43082;43.568;22.256;2024-03-02T02:00:12;11.02;;;7.68;;
57225;SDS011;43082;43.568;22.256;2024-03-02T02:02:38;11.68;;;7.53;;
57225;SDS011;43082;43.568;22.256;2024-03-02T02:05:04;10.80;;;8.05;;
57225;SDS011;43082;43.568;22.256;2024-03-02T02:07:29;10.30;;;7.43;;
57225;SDS011;43082;43.568;22.256;2024-03-02T02:09:56;11.43;;;8.23;;
57225;SDS011;43082;43.568;22.256;2024-03-02T02:12:21;11.02;;;7.55;;
57225;SDS011;43082;43.568;22.256;2024-03-02T02:14:47;12.55;;;7.93;;
57225;SDS011;43082;43.568;22.256;2024-03-02T02:17:14;11.13;;;8.05;;
57225;SDS011;43082;43.568;22.256;2024-03-02T02:19:42;11.55;;;8.10;;
57225;SDS011;43082;43.568;22.256;2024-03-02T02:22:08;10.05;;;7.30;;
57225;SDS011;43082;43.568;22.256;2024-03-02T02:24:40;10.07;;;7.18;;
57225;SDS011;43082;43.568;22.256;2024-03-02T02:27:09;10.00;;;6.88;;
57225;SDS011;43082;43.568;22.256;2024-03-02T02:29:35;9.27;;;6.43;;
57225;SDS011;43082;43.568;22.256;2024-03-02T02:32:01;10.75;;;7.82;;
57225;SDS011;43082;43.568;22.256;2024-03-02T02:34:27;9.63;;;6.70;;
57225;SDS011;43082;43.568;22.256;2024-03-02T02:36:53;9.23;;;6.38;;
57225;SDS011;43082;43.568;22.256;2024-03-02T02:39:19;9.75;;;5.93;;
57225;SDS011;43082;43.568;22.256;2024-03-02T02:41:45;9.18;;;6.30;;
57225;SDS011;43082;43.568;22.256;2024-03-02T02:44:11;9.02;;;6.22;;
57225;SDS011;43082;43.568;22.256;2024-03-02T02:46:38;9.15;;;6.57;;
57225;SDS011;43082;43.568;22.256;2024-03-02T02:49:04;9.50;;;6.43;;
57225;SDS011;43082;43.568;22.256;2024-03-02T02:51:29;8.55;;;5.60;;
57225;SDS011;43082;43.568;22.256;2024-03-02T02:53:54;10.68;;;6.00;;
57225;SDS011;43082;43.568;22.256;2024-03-02T02:56:20;9.68;;;5.40;;
57225;SDS011;43082;43.568;22.256;2024-03-02T02:58:45;8.23;;;5.20;;
57225;SDS011;43082;43.568;22.256;2024-03-02T03:01:11;7.47;;;4.75;;
57225;SDS011;43082;43.568;22.256;2024-03-02T03:03:36;7.93;;;5.20;;
57225;SDS011;43082;43.568;22.256;2024-03-02T03:06:02;7.35;;;4.10;;
57225;SDS011;43082;43.568;22.256;2024-03-02T03:08:27;9.48;;;4.65;;
57225;SDS011;43082;43.568;22.256;2024-03-02T03:10:53;7.40;;;4.85;;
57225;SDS011;43082;43.568;22.256;2024-03-02T03:13:19;8.18;;;4.88;;
57225;SDS011;43082;43.568;22.256;2024-03-02T03:15:44;7.93;;;4.88;;
57225;SDS011;43082;43.568;22.256;2024-03-02T03:18:10;7.80;;;4.63;;
57225;SDS011;43082;43.568;22.256;2024-03-02T03:20:35;7.53;;;4.45;;
57225;SDS011;43082;43.568;22.256;2024-03-02T03:23:01;7.07;;;4.65;;
57225;SDS011;43082;43.568;22.256;2024-03-02T03:25:26;8.52;;;4.78;;
57225;SDS011;43082;43.568;22.256;2024-03-02T03:27:52;6.95;;;4.65;;
57225;SDS011;43082;43.568;22.256;2024-03-02T03:30:17;8.55;;;5.25;;
57225;SDS011;43082;43.568;22.256;2024-03-02T03:32:43;7.00;;;4.53;;
57225;SDS011;43082;43.568;22.256;2024-03-02T03:35:08;7.30;;;4.50;;
57225;SDS011;43082;43.568;22.256;2024-03-02T03:37:34;7.05;;;4.57;;
57225;SDS011;43082;43.568;22.256;2024-03-02T03:40:00;7.22;;;4.57;;
57225;SDS011;43082;43.568;22.256;2024-03-02T03:42:26;8.10;;;4.93;;
57225;SDS011;43082;43.568;22.256;2024-03-02T03:44:52;9.02;;;4.95;;
57225;SDS011;43082;43.568;22.256;2024-03-02T03:47:17;7.97;;;4.60;;
57225;SDS011;43082;43.568;22.256;2024-03-02T03:49:42;7.15;;;4.57;;
57225;SDS011;43082;43.568;22.256;2024-03-02T03:52:08;6.63;;;3.63;;
57225;SDS011;43082;43.568;22.256;2024-03-02T03:54:33;6.38;;;3.20;;
57225;SDS011;43082;43.568;22.256;2024-03-02T03:56:59;6.13;;;3.38;;
57225;SDS011;43082;43.568;22.256;2024-03-02T03:59:25;6.10;;;3.40;;
57225;SDS011;43082;43.568;22.256;2024-03-02T04:01:50;7.88;;;3.10;;
57225;SDS011;43082;43.568;22.256;2024-03-02T04:04:15;5.97;;;3.17;;
57225;SDS011;43082;43.568;22.256;2024-03-02T04:06:42;9.27;;;3.30;;
57225;SDS011;43082;43.568;22.256;2024-03-02T04:09:07;5.65;;;3.05;;
57225;SDS011;43082;43.568;22.256;2024-03-02T04:11:33;5.35;;;2.83;;
57225;SDS011;43082;43.568;22.256;2024-03-02T04:13:58;6.72;;;3.33;;
57225;SDS011;43082;43.568;22.256;2024-03-02T04:16:24;6.18;;;3.20;;
57225;SDS011;43082;43.568;22.256;2024-03-02T04:18:49;5.75;;;3.00;;
57225;SDS011;43082;43.568;22.256;2024-03-02T04:21:15;5.15;;;2.50;;
57225;SDS011;43082;43.568;22.256;2024-03-02T04:23:40;4.85;;;2.40;;
57225;SDS011;43082;43.568;22.256;2024-03-02T04:26:05;4.88;;;2.40;;
57225;SDS011;43082;43.568;22.256;2024-03-02T04:28:31;5.10;;;2.50;;
57225;SDS011;43082;43.568;22.256;2024-03-02T04:30:56;5.07;;;2.58;;
57225;SDS011;43082;43.568;22.256;2024-03-02T04:33:22;5.57;;;2.50;;
57225;SDS011;43082;43.568;22.256;2024-03-02T04:35:47;6.38;;;2.70;;
57225;SDS011;43082;43.568;22.256;2024-03-02T04:38:13;5.60;;;2.60;;
57225;SDS011;43082;43.568;22.256;2024-03-02T04:40:38;5.25;;;2.40;;
57225;SDS011;43082;43.568;22.256;2024-03-02T04:43:03;6.45;;;3.00;;
57225;SDS011;43082;43.568;22.256;2024-03-02T04:45:29;6.15;;;3.05;;
57225;SDS011;43082;43.568;22.256;2024-03-02T04:47:54;6.25;;;2.35;;
57225;SDS011;43082;43.568;22.256;2024-03-02T04:50:20;7.88;;;4.10;;
57225;SDS011;43082;43.568;22.256;2024-03-02T04:52:45;6.82;;;2.97;;
57225;SDS011;43082;43.568;22.256;2024-03-02T04:55:11;5.38;;;2.28;;
57225;SDS011;43082;43.568;22.256;2024-03-02T04:58:14;5.13;;;2.30;;
57225;SDS011;43082;43.568;22.256;2024-03-02T05:00:40;5.15;;;2.38;;
57225;SDS011;43082;43.568;22.256;2024-03-02T05:03:05;4.97;;;2.40;;
57225;SDS011;43082;43.568;22.256;2024-03-02T05:05:31;4.70;;;2.05;;
57225;SDS011;43082;43.568;22.256;2024-03-02T05:07:56;4.40;;;1.60;;
57225;SDS011;43082;43.568;22.256;2024-03-02T05:10:21;4.20;;;1.70;;
57225;SDS011;43082;43.568;22.256;2024-03-02T05:12:47;5.45;;;1.98;;
57225;SDS011;43082;43.568;22.256;2024-03-02T05:15:21;4.65;;;1.80;;
57225;SDS011;43082;43.568;22.256;2024-03-02T05:17:47;5.30;;;2.10;;
57225;SDS011;43082;43.568;22.256;2024-03-02T05:20:12;4.47;;;1.80;;
57225;SDS011;43082;43.568;22.256;2024-03-02T05:22:38;4.10;;;1.90;;
57225;SDS011;43082;43.568;22.256;2024-03-02T05:25:04;3.63;;;1.55;;
57225;SDS011;43082;43.568;22.256;2024-03-02T05:27:30;4.53;;;1.75;;
57225;SDS011;43082;43.568;22.256;2024-03-02T05:29:57;5.38;;;2.22;;
57225;SDS011;43082;43.568;22.256;2024-03-02T05:32:23;4.35;;;1.92;;
57225;SDS011;43082;43.568;22.256;2024-03-02T05:34:49;4.45;;;2.10;;
57225;SDS011;43082;43.568;22.256;2024-03-02T05:37:15;4.82;;;2.20;;
57225;SDS011;43082;43.568;22.256;2024-03-02T05:39:41;6.90;;;3.78;;
57225;SDS011;43082;43.568;22.256;2024-03-02T05:42:08;6.57;;;3.70;;
57225;SDS011;43082;43.568;22.256;2024-03-02T05:44:34;6.20;;;3.58;;
57225;SDS011;43082;43.568;22.256;2024-03-02T05:47:00;5.97;;;2.72;;
57225;SDS011;43082;43.568;22.256;2024-03-02T05:49:25;6.00;;;2.97;;
57225;SDS011;43082;43.568;22.256;2024-03-02T05:51:51;6.35;;;4.10;;
57225;SDS011;43082;43.568;22.256;2024-03-02T05:54:16;5.10;;;2.40;;
57225;SDS011;43082;43.568;22.256;2024-03-02T05:56:42;4.75;;;1.80;;
57225;SDS011;43082;43.568;22.256;2024-03-02T05:59:07;4.93;;;2.00;;
57225;SDS011;43082;43.568;22.256;2024-03-02T06:01:33;4.47;;;1.85;;
57225;SDS011;43082;43.568;22.256;2024-03-02T06:03:58;4.38;;;1.80;;
57225;SDS011;43082;43.568;22.256;2024-03-02T06:06:24;5.25;;;2.20;;
57225;SDS011;43082;43.568;22.256;2024-03-02T06:08:49;4.40;;;1.85;;
57225;SDS011;43082;43.568;22.256;2024-03-02T06:11:15;4.72;;;2.13;;
57225;SDS011;43082;43.568;22.256;2024-03-02T06:13:40;4.57;;;2.00;;
57225;SDS011;43082;43.568;22.256;2024-03-02T06:16:06;5.80;;;2.17;;
57225;SDS011;43082;43.568;22.256;2024-03-02T06:18:33;4.00;;;1.70;;
57225;SDS011;43082;43.568;22.256;2024-03-02T06:20:59;4.28;;;1.70;;
57225;SDS011;43082;43.568;22.256;2024-03-02T06:23:26;4.65;;;1.80;;
57225;SDS011;43082;43.568;22.256;2024-03-02T06:25:51;4.05;;;1.77;;
57225;SDS011;43082;43.568;22.256;2024-03-02T06:28:17;4.13;;;1.60;;
57225;SDS011;43082;43.568;22.256;2024-03-02T06:30:43;4.35;;;1.63;;
57225;SDS011;43082;43.568;22.256;2024-03-02T06:33:08;4.88;;;2.10;;
57225;SDS011;43082;43.568;22.256;2024-03-02T06:35:34;5.18;;;2.45;;
57225;SDS011;43082;43.568;22.256;2024-03-02T06:38:00;4.53;;;1.95;;
57225;SDS011;43082;43.568;22.256;2024-03-02T06:40:26;5.07;;;2.33;;
57225;SDS011;43082;43.568;22.256;2024-03-02T06:42:51;7.22;;;4.05;;
57225;SDS011;43082;43.568;22.256;2024-03-02T06:45:17;6.53;;;3.47;;
57225;SDS011;43082;43.568;22.256;2024-03-02T06:47:42;6.88;;;3.80;;
57225;SDS011;43082;43.568;22.256;2024-03-02T06:50:08;5.50;;;3.00;;
57225;SDS011;43082;43.568;22.256;2024-03-02T06:52:34;6.82;;;2.45;;
57225;SDS011;43082;43.568;22.256;2024-03-02T06:55:00;5.75;;;2.58;;
57225;SDS011;43082;43.568;22.256;2024-03-02T06:57:25;5.32;;;2.50;;
57225;SDS011;43082;43.568;22.256;2024-03-02T06:59:51;5.50;;;2.35;;
57225;SDS011;43082;43.568;22.256;2024-03-02T07:02:19;5.80;;;2.40;;
57225;SDS011;43082;43.568;22.256;2024-03-02T07:04:45;4.93;;;2.10;;
57225;SDS011;43082;43.568;22.256;2024-03-02T07:07:10;5.43;;;2.28;;
57225;SDS011;43082;43.568;22.256;2024-03-02T07:09:36;6.63;;;2.80;;
57225;SDS011;43082;43.568;22.256;2024-03-02T07:12:01;6.13;;;1.88;;
57225;SDS011;43082;43.568;22.256;2024-03-02T07:14:27;5.88;;;2.53;;
57225;SDS011;43082;43.568;22.256;2024-03-02T07:19:38;5.97;;;2.58;;
57225;SDS011;43082;43.568;22.256;2024-03-02T07:22:07;5.00;;;2.20;;
57225;SDS011;43082;43.568;22.256;2024-03-02T07:24:40;4.63;;;2.10;;
57225;SDS011;43082;43.568;22.256;2024-03-02T07:27:06;4.45;;;1.65;;
57225;SDS011;43082;43.568;22.256;2024-03-02T07:29:32;4.82;;;1.88;;
57225;SDS011;43082;43.568;22.256;2024-03-02T07:31:57;4.18;;;1.50;;
57225;SDS011;43082;43.568;22.256;2024-03-02T07:34:23;4.18;;;1.75;;
57225;SDS011;43082;43.568;22.256;2024-03-02T07:36:48;5.13;;;2.10;;
57225;SDS011;43082;43.568;22.256;2024-03-02T07:39:14;4.70;;;2.05;;
57225;SDS011;43082;43.568;22.256;2024-03-02T07:41:39;5.28;;;1.80;;
57225;SDS011;43082;43.568;22.256;2024-03-02T07:44:04;4.75;;;1.90;;
57225;SDS011;43082;43.568;22.256;2024-03-02T07:46:30;4.82;;;2.10;;
57225;SDS011;43082;43.568;22.256;2024-03-02T07:48:56;4.85;;;2.00;;
57225;SDS011;43082;43.568;22.256;2024-03-02T07:51:21;5.35;;;2.00;;
57225;SDS011;43082;43.568;22.256;2024-03-02T07:53:47;5.25;;;2.10;;
57225;SDS011;43082;43.568;22.256;2024-03-02T07:56:12;5.18;;;2.13;;
57225;SDS011;43082;43.568;22.256;2024-03-02T07:58:37;6.43;;;2.40;;
57225;SDS011;43082;43.568;22.256;2024-03-02T08:01:03;5.93;;;2.28;;
57225;SDS011;43082;43.568;22.256;2024-03-02T08:03:29;4.90;;;2.00;;
57225;SDS011;43082;43.568;22.256;2024-03-02T08:05:54;4.63;;;2.03;;
57225;SDS011;43082;43.568;22.256;2024-03-02T08:08:19;5.82;;;2.38;;
57225;SDS011;43082;43.568;22.256;2024-03-02T08:10:45;5.90;;;2.90;;
57225;SDS011;43082;43.568;22.256;2024-03-02T08:13:10;5.32;;;2.40;;
57225;SDS011;43082;43.568;22.256;2024-03-02T08:15:36;5.20;;;2.53;;
57225;SDS011;43082;43.568;22.256;2024-03-02T08:18:01;5.10;;;1.98;;
57225;SDS011;43082;43.568;22.256;2024-03-02T08:20:27;5.57;;;2.30;;
57225;SDS011;43082;43.568;22.256;2024-03-02T08:22:52;5.40;;;2.50;;
57225;SDS011;43082;43.568;22.256;2024-03-02T08:25:20;5.60;;;2.58;;
57225;SDS011;43082;43.568;22.256;2024-03-02T08:27:45;6.43;;;3.38;;
57225;SDS011;43082;43.568;22.256;2024-03-02T08:30:11;5.82;;;3.00;;
57225;SDS011;43082;43.568;22.256;2024-03-02T08:32:37;5.40;;;2.50;;
57225;SDS011;43082;43.568;22.256;2024-03-02T08:35:03;5.57;;;2.70;;
57225;SDS011;43082;43.568;22.256;2024-03-02T08:37:29;5.30;;;2.47;;
57225;SDS011;43082;43.568;22.256;2024-03-02T08:39:54;6.25;;;2.70;;
57225;SDS011;43082;43.568;22.256;2024-03-02T08:42:20;5.78;;;2.95;;
57225;SDS011;43082;43.568;22.256;2024-03-02T08:44:45;5.57;;;2.42;;
57225;SDS011;43082;43.568;22.256;2024-03-02T08:47:11;5.93;;;2.60;;
57225;SDS011;43082;43.568;22.256;2024-03-02T08:49:36;6.05;;;2.50;;
57225;SDS011;43082;43.568;22.256;2024-03-02T08:52:02;4.55;;;2.17;;
57225;SDS011;43082;43.568;22.256;2024-03-02T08:54:27;5.50;;;2.58;;
57225;SDS011;43082;43.568;22.256;2024-03-02T08:56:53;6.15;;;3.55;;
57225;SDS011;43082;43.568;22.256;2024-03-02T08:59:18;7.03;;;3.80;;
57225;SDS011;43082;43.568;22.256;2024-03-02T09:01:44;7.93;;;3.53;;
57225;SDS011;43082;43.568;22.256;2024-03-02T09:04:10;4.28;;;1.80;;
57225;SDS011;43082;43.568;22.256;2024-03-02T09:06:35;4.57;;;2.08;;
57225;SDS011;43082;43.568;22.256;2024-03-02T09:09:01;5.35;;;2.47;;
57225;SDS011;43082;43.568;22.256;2024-03-02T09:11:26;4.15;;;1.50;;
57225;SDS011;43082;43.568;22.256;2024-03-02T09:13:52;3.95;;;1.60;;
57225;SDS011;43082;43.568;22.256;2024-03-02T09:16:18;4.13;;;1.80;;
57225;SDS011;43082;43.568;22.256;2024-03-02T09:18:43;6.05;;;1.60;;
57225;SDS011;43082;43.568;22.256;2024-03-02T09:21:09;4.00;;;1.50;;
57225;SDS011;43082;43.568;22.256;2024-03-02T09:23:35;3.72;;;1.40;;
57225;SDS011;43082;43.568;22.256;2024-03-02T09:26:00;3.15;;;1.35;;
57225;SDS011;43082;43.568;22.256;2024-03-02T09:28:26;3.67;;;1.40;;
57225;SDS011;43082;43.568;22.256;2024-03-02T09:30:51;4.20;;;1.58;;
57225;SDS011;43082;43.568;22.256;2024-03-02T09:33:17;2.63;;;0.93;;
57225;SDS011;43082;43.568;22.256;2024-03-02T09:35:42;4.72;;;1.92;;
57225;SDS011;43082;43.568;22.256;2024-03-02T09:38:07;3.67;;;1.30;;
57225;SDS011;43082;43.568;22.256;2024-03-02T09:40:33;3.15;;;1.10;;
57225;SDS011;43082;43.568;22.256;2024-03-02T09:42:58;3.60;;;1.27;;
57225;SDS011;43082;43.568;22.256;2024-03-02T09:45:24;3.50;;;1.30;;
57225;SDS011;43082;43.568;22.256;2024-03-02T09:47:50;3.13;;;1.27;;
57225;SDS011;43082;43.568;22.256;2024-03-02T09:50:16;4.43;;;1.58;;
57225;SDS011;43082;43.568;22.256;2024-03-02T09:52:48;4.38;;;2.00;;
57225;SDS011;43082;43.568;22.256;2024-03-02T09:55:15;2.75;;;1.15;;
57225;SDS011;43082;43.568;22.256;2024-03-02T09:57:40;4.00;;;1.45;;
57225;SDS011;43082;43.568;22.256;2024-03-02T10:00:07;3.17;;;1.10;;
57225;SDS011;43082;43.568;22.256;2024-03-02T10:02:33;7.72;;;3.28;;
57225;SDS011;43082;43.568;22.256;2024-03-02T10:04:59;9.77;;;5.60;;
57225;SDS011;43082;43.568;22.256;2024-03-02T10:07:24;7.55;;;3.67;;
57225;SDS011;43082;43.568;22.256;2024-03-02T10:09:50;9.07;;;4.40;;
57225;SDS011;43082;43.568;22.256;2024-03-02T10:12:17;5.88;;;2.75;;
57225;SDS011;43082;43.568;22.256;2024-03-02T10:14:43;5.90;;;2.80;;
57225;SDS011;43082;43.568;22.256;2024-03-02T10:17:09;5.15;;;2.10;;
57225;SDS011;43082;43.568;22.256;2024-03-02T10:19:36;6.03;;;2.97;;
57225;SDS011;43082;43.568;22.256;2024-03-02T10:22:02;5.05;;;2.17;;
57225;SDS011;43082;43.568;22.256;2024-03-02T10:24:37;4.45;;;1.70;;
57225;SDS011;43082;43.568;22.256;2024-03-02T10:27:08;4.50;;;1.17;;
57225;SDS011;43082;43.568;22.256;2024-03-02T10:29:36;3.42;;;1.33;;
57225;SDS011;43082;43.568;22.256;2024-03-02T10:32:03;2.08;;;0.90;;
57225;SDS011;43082;43.568;22.256;2024-03-02T10:34:29;2.75;;;1.08;;
57225;SDS011;43082;43.568;22.256;2024-03-02T10:36:56;6.53;;;1.92;;
57225;SDS011;43082;43.568;22.256;2024-03-02T10:39:21;2.67;;;1.20;;
57225;SDS011;43082;43.568;22.256;2024-03-02T10:41:49;3.00;;;1.10;;
57225;SDS011;43082;43.568;22.256;2024-03-02T10:44:14;3.00;;;1.08;;
57225;SDS011;43082;43.568;22.256;2024-03-02T10:46:40;5.05;;;2.03;;
57225;SDS011;43082;43.568;22.256;2024-03-02T10:49:06;4.70;;;1.60;;
57225;SDS011;43082;43.568;22.256;2024-03-02T10:51:32;5.20;;;1.48;;
57225;SDS011;43082;43.568;22.256;2024-03-02T10:53:59;5.40;;;2.60;;
57225;SDS011;43082;43.568;22.256;2024-03-02T10:56:39;8.20;;;3.60;;
57225;SDS011;43082;43.568;22.256;2024-03-02T11:01:57;7.47;;;3.88;;
57225;SDS011;43082;43.568;22.256;2024-03-02T11:04:24;7.70;;;4.53;;
57225;SDS011;43082;43.568;22.256;2024-03-02T11:06:51;5.53;;;2.90;;
57225;SDS011;43082;43.568;22.256;2024-03-02T11:09:21;5.75;;;2.40;;
57225;SDS011;43082;43.568;22.256;2024-03-02T11:14:49;10.18;;;5.75;;
57225;SDS011;43082;43.568;22.256;2024-03-02T11:17:17;6.68;;;3.10;;
57225;SDS011;43082;43.568;22.256;2024-03-02T11:19:43;7.63;;;3.85;;
57225;SDS011;43082;43.568;22.256;2024-03-02T11:22:09;6.38;;;2.92;;
57225;SDS011;43082;43.568;22.256;2024-03-02T11:24:35;3.92;;;1.63;;
57225;SDS011;43082;43.568;22.256;2024-03-02T11:27:02;4.40;;;1.98;;
57225;SDS011;43082;43.568;22.256;2024-03-02T11:32:01;4.85;;;2.00;;
57225;SDS011;43082;43.568;22.256;2024-03-02T11:34:31;5.97;;;3.10;;
57225;SDS011;43082;43.568;22.256;2024-03-02T11:37:03;4.60;;;2.05;;
57225;SDS011;43082;43.568;22.256;2024-03-02T11:39:29;5.15;;;2.38;;
57225;SDS011;43082;43.568;22.256;2024-03-02T11:41:55;4.20;;;1.80;;
57225;SDS011;43082;43.568;22.256;2024-03-02T11:44:22;3.83;;;1.40;;
57225;SDS011;43082;43.568;22.256;2024-03-02T11:47:06;6.50;;;2.90;;
57225;SDS011;43082;43.568;22.256;2024-03-02T11:49:36;7.07;;;3.30;;
57225;SDS011;43082;43.568;22.256;2024-03-02T11:52:12;4.15;;;1.70;;
57225;SDS011;43082;43.568;22.256;2024-03-02T11:54:40;3.65;;;1.40;;
57225;SDS011;43082;43.568;22.256;2024-03-02T11:57:11;5.43;;;2.40;;
57225;SDS011;43082;43.568;22.256;2024-03-02T11:59:37;5.15;;;2.38;;
57225;SDS011;43082;43.568;22.256;2024-03-02T12:02:03;16.55;;;10.38;;
57225;SDS011;43082;43.568;22.256;2024-03-02T12:04:28;5.75;;;2.55;;
57225;SDS011;43082;43.568;22.256;2024-03-02T12:07:03;6.00;;;2.25;;
57225;SDS011;43082;43.568;22.256;2024-03-02T12:09:29;5.47;;;2.45;;
57225;SDS011;43082;43.568;22.256;2024-03-02T12:12:04;4.65;;;2.20;;
57225;SDS011;43082;43.568;22.256;2024-03-02T12:14:34;3.83;;;1.63;;
57225;SDS011;43082;43.568;22.256;2024-03-02T12:17:01;5.60;;;2.30;;
57225;SDS011;43082;43.568;22.256;2024-03-02T12:19:26;18.02;;;12.65;;
57225;SDS011;43082;43.568;22.256;2024-03-02T12:21:59;7.57;;;4.63;;
57225;SDS011;43082;43.568;22.256;2024-03-02T12:24:26;5.30;;;2.40;;
57225;SDS011;43082;43.568;22.256;2024-03-02T12:26:53;4.20;;;1.77;;
57225;SDS011;43082;43.568;22.256;2024-03-02T12:29:19;5.68;;;2.22;;
57225;SDS011;43082;43.568;22.256;2024-03-02T12:31:47;6.57;;;2.88;;
57225;SDS011;43082;43.568;22.256;2024-03-02T12:34:13;5.40;;;2.22;;
57225;SDS011;43082;43.568;22.256;2024-03-02T12:36:40;5.20;;;2.15;;
57225;SDS011;43082;43.568;22.256;2024-03-02T12:39:07;5.00;;;2.40;;
57225;SDS011;43082;43.568;22.256;2024-03-02T12:41:35;5.10;;;2.50;;
57225;SDS011;43082;43.568;22.256;2024-03-02T12:44:02;8.32;;;4.00;;
57225;SDS011;43082;43.568;22.256;2024-03-02T12:46:28;4.68;;;1.98;;
57225;SDS011;43082;43.568;22.256;2024-03-02T12:48:53;5.15;;;2.60;;
57225;SDS011;43082;43.568;22.256;2024-03-02T12:51:19;4.72;;;1.80;;
57225;SDS011;43082;43.568;22.256;2024-03-02T12:53:44;6.35;;;2.40;;
57225;SDS011;43082;43.568;22.256;2024-03-02T12:56:10;6.43;;;3.10;;
57225;SDS011;43082;43.568;22.256;2024-03-02T12:58:42;5.63;;;2.50;;
57225;SDS011;43082;43.568;22.256;2024-03-02T13:01:07;6.05;;;3.00;;
57225;SDS011;43082;43.568;22.256;2024-03-02T13:03:38;6.65;;;3.03;;
57225;SDS011;43082;43.568;22.256;2024-03-02T13:06:04;5.07;;;2.60;;
57225;SDS011;43082;43.568;22.256;2024-03-02T13:08:31;5.30;;;2.70;;
57225;SDS011;43082;43.568;22.256;2024-03-02T13:10:56;8.38;;;3.60;;
57225;SDS011;43082;43.568;22.256;2024-03-02T13:13:22;8.70;;;5.20;;
57225;SDS011;43082;43.568;22.256;2024-03-02T13:15:48;8.07;;;4.82;;
57225;SDS011;43082;43.568;22.256;2024-03-02T13:18:13;7.43;;;4.60;;
57225;SDS011;43082;43.568;22.256;2024-03-02T13:20:39;7.00;;;3.70;;
57225;SDS011;43082;43.568;22.256;2024-03-02T13:23:05;6.45;;;3.60;;
57225;SDS011;43082;43.568;22.256;2024-03-02T13:25:31;5.65;;;2.63;;
57225;SDS011;43082;43.568;22.256;2024-03-02T13:27:57;5.88;;;3.17;;
57225;SDS011;43082;43.568;22.256;2024-03-02T13:30:23;6.43;;;3.83;;
57225;SDS011;43082;43.568;22.256;2024-03-02T13:32:48;10.82;;;7.97;;
57225;SDS011;43082;43.568;22.256;2024-03-02T13:35:14;5.80;;;2.83;;
57225;SDS011;43082;43.568;22.256;2024-03-02T13:37:39;12.52;;;6.43;;
57225;SDS011;43082;43.568;22.256;2024-03-02T13:40:05;9.00;;;5.95;;
57225;SDS011;43082;43.568;22.256;2024-03-02T13:42:31;8.50;;;4.95;;
57225;SDS011;43082;43.568;22.256;2024-03-02T13:44:56;6.90;;;3.00;;
57225;SDS011;43082;43.568;22.256;2024-03-02T13:47:22;6.50;;;3.17;;
57225;SDS011;43082;43.568;22.256;2024-03-02T13:49:47;6.00;;;2.90;;
57225;SDS011;43082;43.568;22.256;2024-03-02T13:52:14;8.10;;;3.10;;
57225;SDS011;43082;43.568;22.256;2024-03-02T13:54:40;4.82;;;2.20;;
57225;SDS011;43082;43.568;22.256;2024-03-02T13:57:07;5.85;;;2.70;;
57225;SDS011;43082;43.568;22.256;2024-03-02T13:59:33;5.85;;;2.60;;
57225;SDS011;43082;43.568;22.256;2024-03-02T14:02:00;4.38;;;2.08;;
57225;SDS011;43082;43.568;22.256;2024-03-02T14:04:25;6.78;;;3.10;;
57225;SDS011;43082;43.568;22.256;2024-03-02T14:06:51;6.60;;;2.92;;
57225;SDS011;43082;43.568;22.256;2024-03-02T14:09:18;6.13;;;2.70;;
57225;SDS011;43082;43.568;22.256;2024-03-02T14:11:45;5.18;;;2.20;;
57225;SDS011;43082;43.568;22.256;2024-03-02T14:14:11;6.88;;;3.95;;
57225;SDS011;43082;43.568;22.256;2024-03-02T14:16:36;5.65;;;3.15;;
57225;SDS011;43082;43.568;22.256;2024-03-02T14:19:02;7.70;;;3.80;;
57225;SDS011;43082;43.568;22.256;2024-03-02T14:21:29;8.73;;;4.50;;
57225;SDS011;43082;43.568;22.256;2024-03-02T14:23:55;8.07;;;3.90;;
57225;SDS011;43082;43.568;22.256;2024-03-02T14:26:20;6.13;;;3.00;;
57225;SDS011;43082;43.568;22.256;2024-03-02T14:28:46;6.25;;;3.00;;
57225;SDS011;43082;43.568;22.256;2024-03-02T14:31:11;7.90;;;3.35;;
57225;SDS011;43082;43.568;22.256;2024-03-02T14:33:37;8.18;;;4.32;;
57225;SDS011;43082;43.568;22.256;2024-03-02T14:36:02;8.23;;;4.60;;